NORTHERN QUEENS  -  Heat Advisory Heat Advisory     Air Quality Alert Air Quality Alert        SOUTHERN QUEENS  -  Heat Advisory Heat Advisory     Air Quality Alert Air Quality Alert      

Active alerts

Northern Queens
  Details for Northern Queens Heat Advisory  +1 additional alert
Southern Queens
  Details for Southern Queens Heat Advisory  +1 additional alert


WXM80 ListenWXM80 Stop

You find our weather info also at:

UK Metoffice

WeatherCloud

Weather Underground

Northeastern Weather Network

AWEKAS

Citizen Weather Observer Program (CWOP)

HAMweather, WeatherForYou, PWS Weather


Weather Underground History page Text

Daily Summary for April 12, 2017 Units:  Both    English   Metric
« Previous Day
Next Day »
Daily Weekly Monthly Yearly Custom
  High: Low: Average:
Temperature: 71.7 °F /  22.1 °C 48.2 °F /  9 °C 59.1 °F /  15.1 °C
Dew Point: 60.0 °F /  15.6 °C 45.9 °F /  7.7 °C 52.6 °F /  11.4 °C
Humidity: 95 % 59 % 80 %
Wind Speed: 6.9 mph /  11.1 km/h - 0.8 mph /  1.3 km/h
Wind Gust: 9.2 mph /  14.8 km/h - -
Wind:- - SW
Pressure: 30.21 in /  1022.9 hPa 30.05 in /  1017.5 hPa -
Precipitation: 0.00 in /  0 mm    
Historical Graphs
 
 
Tabular Data for April 12, 2017
Time Temperature Dew Point Pressure Wind Wind Speed Wind Gust Humidity Rainfall Rate (Hourly)
00:02 55.9 °F /  13.3 °C 50.2 °F /  10.1 °C 30.08 in /  1018.5 hPa Calm     81 % 0.00 in /  0 mm
00:07 55.7 °F /  13.2 °C 50.0 °F /  10 °C 30.08 in /  1018.5 hPa Calm   1.2 mph /  1.9 km/h 81 % 0.00 in /  0 mm
00:09 55.4 °F /  13 °C 49.3 °F /  9.6 °C 30.08 in /  1018.5 hPa North 0.5 mph /  0.8 km/h 1.2 mph /  1.9 km/h 80 % 0.00 in /  0 mm
00:14 54.8 °F /  12.7 °C 48.7 °F /  9.3 °C 30.08 in /  1018.5 hPa North 0.6 mph /  1 km/h 2.0 mph /  3.2 km/h 80 % 0.00 in /  0 mm
00:19 54.5 °F /  12.5 °C 48.5 °F /  9.2 °C 30.08 in /  1018.5 hPa Calm   1.2 mph /  1.9 km/h 80 % 0.00 in /  0 mm
00:24 54.2 °F /  12.3 °C 48.5 °F /  9.2 °C 30.07 in /  1018.2 hPa North 0.3 mph /  0.5 km/h 1.2 mph /  1.9 km/h 81 % 0.00 in /  0 mm
00:29 53.9 °F /  12.2 °C 48.5 °F /  9.2 °C 30.07 in /  1018.2 hPa Calm     82 % 0.00 in /  0 mm
00:34 53.7 °F /  12.1 °C 48.3 °F /  9.1 °C 30.07 in /  1018.2 hPa Calm     82 % 0.00 in /  0 mm
00:39 53.5 °F /  11.9 °C 48.5 °F /  9.2 °C 30.08 in /  1018.5 hPa North 2.6 mph /  4.2 km/h 3.5 mph /  5.6 km/h 83 % 0.00 in /  0 mm
00:44 53.3 °F /  11.8 °C 48.3 °F /  9.1 °C 30.08 in /  1018.5 hPa Calm     83 % 0.00 in /  0 mm
00:49 53.2 °F /  11.8 °C 48.5 °F /  9.2 °C 30.08 in /  1018.5 hPa Calm     84 % 0.00 in /  0 mm
00:54 53.0 °F /  11.7 °C 48.3 °F /  9.1 °C 30.08 in /  1018.5 hPa Calm     84 % 0.00 in /  0 mm
00:59 52.8 °F /  11.6 °C 48.4 °F /  9.1 °C 30.08 in /  1018.5 hPa Calm     85 % 0.00 in /  0 mm
01:04 52.7 °F /  11.5 °C 48.3 °F /  9.1 °C 30.08 in /  1018.5 hPa Calm     85 % 0.00 in /  0 mm
01:09 52.6 °F /  11.4 °C 48.2 °F /  9 °C 30.08 in /  1018.5 hPa Calm     85 % 0.00 in /  0 mm
01:14 52.5 °F /  11.4 °C 48.1 °F /  8.9 °C 30.08 in /  1018.5 hPa Calm     85 % 0.00 in /  0 mm
01:19 52.4 °F /  11.3 °C 48.3 °F /  9.1 °C 30.08 in /  1018.5 hPa Calm     86 % 0.00 in /  0 mm
01:24 52.3 °F /  11.3 °C 48.2 °F /  9 °C 30.08 in /  1018.5 hPa Calm     86 % 0.00 in /  0 mm
01:29 52.2 °F /  11.2 °C 48.1 °F /  8.9 °C 30.08 in /  1018.5 hPa North 0.2 mph /  0.3 km/h 1.2 mph /  1.9 km/h 86 % 0.00 in /  0 mm
01:34 52.1 °F /  11.2 °C 48.3 °F /  9.1 °C 30.08 in /  1018.5 hPa Calm     87 % 0.00 in /  0 mm
01:39 52.1 °F /  11.2 °C 48.3 °F /  9.1 °C 30.08 in /  1018.5 hPa Calm     87 % 0.00 in /  0 mm
01:44 52.0 °F /  11.1 °C 48.6 °F /  9.2 °C 30.07 in /  1018.2 hPa North 0.1 mph /  0.2 km/h 1.2 mph /  1.9 km/h 88 % 0.00 in /  0 mm
01:49 52.1 °F /  11.2 °C 49.0 °F /  9.4 °C 30.07 in /  1018.2 hPa North 1.0 mph /  1.6 km/h 2.3 mph /  3.7 km/h 89 % 0.00 in /  0 mm
01:54 52.1 °F /  11.2 °C 49.0 °F /  9.4 °C 30.07 in /  1018.2 hPa North 0.7 mph /  1.1 km/h 1.2 mph /  1.9 km/h 89 % 0.00 in /  0 mm
01:59 52.1 °F /  11.2 °C 49.0 °F /  9.4 °C 30.08 in /  1018.5 hPa Calm     89 % 0.00 in /  0 mm
02:04 52.0 °F /  11.1 °C 48.9 °F /  9.4 °C 30.07 in /  1018.2 hPa Calm     89 % 0.00 in /  0 mm
02:09 52.1 °F /  11.2 °C 49.3 °F /  9.6 °C 30.07 in /  1018.2 hPa Calm     90 % 0.00 in /  0 mm
02:14 52.0 °F /  11.1 °C 49.2 °F /  9.6 °C 30.06 in /  1017.8 hPa North 0.9 mph /  1.4 km/h 2.3 mph /  3.7 km/h 90 % 0.00 in /  0 mm
02:19 52.0 °F /  11.1 °C 48.9 °F /  9.4 °C 30.06 in /  1017.8 hPa North 0.2 mph /  0.3 km/h 2.3 mph /  3.7 km/h 89 % 0.00 in /  0 mm
02:24 52.0 °F /  11.1 °C 49.2 °F /  9.6 °C 30.06 in /  1017.8 hPa Calm   1.2 mph /  1.9 km/h 90 % 0.00 in /  0 mm
02:29 52.0 °F /  11.1 °C 49.2 °F /  9.6 °C 30.06 in /  1017.8 hPa North 0.3 mph /  0.5 km/h 1.2 mph /  1.9 km/h 90 % 0.00 in /  0 mm
02:34 51.9 °F /  11.1 °C 49.1 °F /  9.5 °C 30.06 in /  1017.8 hPa Calm     90 % 0.00 in /  0 mm
02:39 52.0 °F /  11.1 °C 49.5 °F /  9.7 °C 30.06 in /  1017.8 hPa Calm     91 % 0.00 in /  0 mm
02:44 52.0 °F /  11.1 °C 49.5 °F /  9.7 °C 30.05 in /  1017.5 hPa Calm     91 % 0.00 in /  0 mm
02:49 52.0 °F /  11.1 °C 49.5 °F /  9.7 °C 30.06 in /  1017.8 hPa Calm   1.2 mph /  1.9 km/h 91 % 0.00 in /  0 mm
02:54 52.0 °F /  11.1 °C 49.5 °F /  9.7 °C 30.06 in /  1017.8 hPa North 0.1 mph /  0.2 km/h 1.2 mph /  1.9 km/h 91 % 0.00 in /  0 mm
02:59 52.0 °F /  11.1 °C 49.5 °F /  9.7 °C 30.06 in /  1017.8 hPa Calm     91 % 0.00 in /  0 mm
03:04 51.9 °F /  11.1 °C 49.4 °F /  9.7 °C 30.06 in /  1017.8 hPa Calm     91 % 0.00 in /  0 mm
03:09 51.9 °F /  11.1 °C 49.4 °F /  9.7 °C 30.06 in /  1017.8 hPa Calm     91 % 0.00 in /  0 mm
03:14 51.9 °F /  11.1 °C 49.4 °F /  9.7 °C 30.05 in /  1017.5 hPa Calm     91 % 0.00 in /  0 mm
03:19 51.7 °F /  10.9 °C 48.9 °F /  9.4 °C 30.05 in /  1017.5 hPa Calm     90 % 0.00 in /  0 mm
03:24 51.5 °F /  10.8 °C 48.4 °F /  9.1 °C 30.05 in /  1017.5 hPa Calm     89 % 0.00 in /  0 mm
03:29 51.4 °F /  10.8 °C 48.3 °F /  9.1 °C 30.05 in /  1017.5 hPa Calm     89 % 0.00 in /  0 mm
03:34 51.2 °F /  10.7 °C 48.1 °F /  8.9 °C 30.05 in /  1017.5 hPa Calm     89 % 0.00 in /  0 mm
03:39 51.1 °F /  10.6 °C 48.0 °F /  8.9 °C 30.05 in /  1017.5 hPa Calm     89 % 0.00 in /  0 mm
03:44 51.0 °F /  10.6 °C 47.6 °F /  8.7 °C 30.05 in /  1017.5 hPa Calm     88 % 0.00 in /  0 mm
03:49 50.8 °F /  10.4 °C 47.4 °F /  8.6 °C 30.05 in /  1017.5 hPa Calm     88 % 0.00 in /  0 mm
03:54 50.6 °F /  10.3 °C 47.2 °F /  8.4 °C 30.05 in /  1017.5 hPa Calm     88 % 0.00 in /  0 mm
03:59 50.4 °F /  10.2 °C 47.0 °F /  8.3 °C 30.05 in /  1017.5 hPa Calm     88 % 0.00 in /  0 mm
04:04 50.3 °F /  10.2 °C 46.9 °F /  8.3 °C 30.05 in /  1017.5 hPa Calm     88 % 0.00 in /  0 mm
04:09 50.2 °F /  10.1 °C 46.8 °F /  8.2 °C 30.05 in /  1017.5 hPa Calm     88 % 0.00 in /  0 mm
04:14 50.0 °F /  10 °C 46.9 °F /  8.3 °C 30.05 in /  1017.5 hPa Calm     89 % 0.00 in /  0 mm
04:19 50.0 °F /  10 °C 46.9 °F /  8.3 °C 30.05 in /  1017.5 hPa Calm   2.3 mph /  3.7 km/h 89 % 0.00 in /  0 mm
04:24 49.9 °F /  9.9 °C 46.8 °F /  8.2 °C 30.05 in /  1017.5 hPa North 0.1 mph /  0.2 km/h 1.0 mph /  1.6 km/h 89 % 0.00 in /  0 mm
04:29 49.8 °F /  9.9 °C 47.0 °F /  8.3 °C 30.05 in /  1017.5 hPa Calm     90 % 0.00 in /  0 mm
04:34 49.7 °F /  9.8 °C 46.9 °F /  8.3 °C 30.05 in /  1017.5 hPa North 0.1 mph /  0.2 km/h 1.0 mph /  1.6 km/h 90 % 0.00 in /  0 mm
04:39 49.7 °F /  9.8 °C 46.9 °F /  8.3 °C 30.05 in /  1017.5 hPa North 0.5 mph /  0.8 km/h 1.2 mph /  1.9 km/h 90 % 0.00 in /  0 mm
04:44 49.6 °F /  9.8 °C 47.1 °F /  8.4 °C 30.05 in /  1017.5 hPa Calm     91 % 0.00 in /  0 mm
04:49 49.6 °F /  9.8 °C 47.1 °F /  8.4 °C 30.05 in /  1017.5 hPa Calm     91 % 0.00 in /  0 mm
04:54 49.5 °F /  9.7 °C 47.0 °F /  8.3 °C 30.05 in /  1017.5 hPa Calm     91 % 0.00 in /  0 mm
04:59 49.5 °F /  9.7 °C 47.0 °F /  8.3 °C 30.06 in /  1017.8 hPa Calm     91 % 0.00 in /  0 mm
05:04 49.4 °F /  9.7 °C 46.9 °F /  8.3 °C 30.06 in /  1017.8 hPa Calm     91 % 0.00 in /  0 mm
05:09 49.3 °F /  9.6 °C 46.8 °F /  8.2 °C 30.06 in /  1017.8 hPa Calm     91 % 0.00 in /  0 mm
05:14 49.3 °F /  9.6 °C 46.8 °F /  8.2 °C 30.07 in /  1018.2 hPa Calm     91 % 0.00 in /  0 mm
05:19 49.1 °F /  9.5 °C 46.6 °F /  8.1 °C 30.07 in /  1018.2 hPa Calm     91 % 0.00 in /  0 mm
05:24 49.0 °F /  9.4 °C 46.5 °F /  8.1 °C 30.07 in /  1018.2 hPa Calm     91 % 0.00 in /  0 mm
05:29 49.0 °F /  9.4 °C 46.5 °F /  8.1 °C 30.07 in /  1018.2 hPa Calm     91 % 0.00 in /  0 mm
05:34 48.8 °F /  9.3 °C 46.3 °F /  7.9 °C 30.07 in /  1018.2 hPa Calm     91 % 0.00 in /  0 mm
05:39 48.7 °F /  9.3 °C 46.2 °F /  7.9 °C 30.07 in /  1018.2 hPa Calm     91 % 0.00 in /  0 mm
05:44 48.7 °F /  9.3 °C 46.2 °F /  7.9 °C 30.07 in /  1018.2 hPa Calm     91 % 0.00 in /  0 mm
05:49 48.6 °F /  9.2 °C 46.1 °F /  7.8 °C 30.07 in /  1018.2 hPa Calm     91 % 0.00 in /  0 mm
05:54 48.5 °F /  9.2 °C 46.0 °F /  7.8 °C 30.07 in /  1018.2 hPa Calm     91 % 0.00 in /  0 mm
05:59 48.4 °F /  9.1 °C 45.9 °F /  7.7 °C 30.07 in /  1018.2 hPa Calm     91 % 0.00 in /  0 mm
06:04 48.3 °F /  9.1 °C 46.1 °F /  7.8 °C 30.08 in /  1018.5 hPa North 1.0 mph /  1.6 km/h 2.3 mph /  3.7 km/h 92 % 0.00 in /  0 mm
06:09 48.3 °F /  9.1 °C 46.1 °F /  7.8 °C 30.07 in /  1018.2 hPa Calm     92 % 0.00 in /  0 mm
06:14 48.3 °F /  9.1 °C 46.1 °F /  7.8 °C 30.07 in /  1018.2 hPa Calm     92 % 0.00 in /  0 mm
06:19 48.2 °F /  9 °C 46.0 °F /  7.8 °C 30.07 in /  1018.2 hPa Calm     92 % 0.00 in /  0 mm
06:24 48.2 °F /  9 °C 46.0 °F /  7.8 °C 30.07 in /  1018.2 hPa Calm     92 % 0.00 in /  0 mm
06:29 48.2 °F /  9 °C 46.0 °F /  7.8 °C 30.07 in /  1018.2 hPa Calm     92 % 0.00 in /  0 mm
06:35 48.2 °F /  9 °C 46.3 °F /  7.9 °C 30.08 in /  1018.5 hPa Calm     93 % 0.00 in /  0 mm
06:40 48.2 °F /  9 °C 46.3 °F /  7.9 °C 30.08 in /  1018.5 hPa Calm     93 % 0.00 in /  0 mm
06:45 48.2 °F /  9 °C 46.3 °F /  7.9 °C 30.08 in /  1018.5 hPa Calm     93 % 0.00 in /  0 mm
06:50 48.3 °F /  9.1 °C 46.4 °F /  8 °C 30.08 in /  1018.5 hPa Calm     93 % 0.00 in /  0 mm
06:55 48.4 °F /  9.1 °C 46.5 °F /  8.1 °C 30.08 in /  1018.5 hPa Calm     93 % 0.00 in /  0 mm
07:00 48.6 °F /  9.2 °C 46.7 °F /  8.2 °C 30.08 in /  1018.5 hPa Calm     93 % 0.00 in /  0 mm
07:05 48.8 °F /  9.3 °C 47.2 °F /  8.4 °C 30.08 in /  1018.5 hPa Calm     94 % 0.00 in /  0 mm
07:10 49.1 °F /  9.5 °C 47.4 °F /  8.6 °C 30.08 in /  1018.5 hPa Calm     94 % 0.00 in /  0 mm
07:15 49.4 °F /  9.7 °C 48.0 °F /  8.9 °C 30.08 in /  1018.5 hPa Calm     95 % 0.00 in /  0 mm
07:20 49.7 °F /  9.8 °C 48.3 °F /  9.1 °C 30.08 in /  1018.5 hPa Calm     95 % 0.00 in /  0 mm
07:25 50.2 °F /  10.1 °C 48.8 °F /  9.3 °C 30.07 in /  1018.2 hPa Calm     95 % 0.00 in /  0 mm
07:30 50.6 °F /  10.3 °C 49.2 °F /  9.6 °C 30.07 in /  1018.2 hPa Calm     95 % 0.00 in /  0 mm
07:35 51.0 °F /  10.6 °C 49.6 °F /  9.8 °C 30.08 in /  1018.5 hPa NNW 2.0 mph /  3.2 km/h 3.5 mph /  5.6 km/h 95 % 0.00 in /  0 mm
07:40 51.5 °F /  10.8 °C 50.1 °F /  10.1 °C 30.07 in /  1018.2 hPa NNW 1.0 mph /  1.6 km/h 1.2 mph /  1.9 km/h 95 % 0.00 in /  0 mm
07:45 51.8 °F /  11 °C 50.4 °F /  10.2 °C 30.08 in /  1018.5 hPa North 1.6 mph /  2.6 km/h 3.0 mph /  4.8 km/h 95 % 0.00 in /  0 mm
07:50 52.2 °F /  11.2 °C 50.8 °F /  10.4 °C 30.08 in /  1018.5 hPa North 0.8 mph /  1.3 km/h 3.5 mph /  5.6 km/h 95 % 0.00 in /  0 mm
07:55 52.5 °F /  11.4 °C 50.8 °F /  10.4 °C 30.08 in /  1018.5 hPa Calm   2.3 mph /  3.7 km/h 94 % 0.00 in /  0 mm
08:00 52.8 °F /  11.6 °C 51.1 °F /  10.6 °C 30.08 in /  1018.5 hPa NNE 1.3 mph /  2.1 km/h 3.5 mph /  5.6 km/h 94 % 0.00 in /  0 mm
08:05 53.0 °F /  11.7 °C 50.7 °F /  10.4 °C 30.08 in /  1018.5 hPa NNE 0.1 mph /  0.2 km/h 1.2 mph /  1.9 km/h 92 % 0.00 in /  0 mm
08:11 53.2 °F /  11.8 °C 50.6 °F /  10.3 °C 30.08 in /  1018.5 hPa NNE 0.3 mph /  0.5 km/h 2.0 mph /  3.2 km/h 91 % 0.00 in /  0 mm
08:16 53.4 °F /  11.9 °C 50.8 °F /  10.4 °C 30.08 in /  1018.5 hPa Calm   1.2 mph /  1.9 km/h 91 % 0.00 in /  0 mm
08:21 53.7 °F /  12.1 °C 50.8 °F /  10.4 °C 30.08 in /  1018.5 hPa NNE 0.1 mph /  0.2 km/h 1.0 mph /  1.6 km/h 90 % 0.00 in /  0 mm
08:26 54.0 °F /  12.2 °C 51.4 °F /  10.8 °C 30.09 in /  1018.8 hPa NNE 0.1 mph /  0.2 km/h 1.2 mph /  1.9 km/h 91 % 0.00 in /  0 mm
08:31 54.4 °F /  12.4 °C 51.5 °F /  10.8 °C 30.09 in /  1018.8 hPa Calm   1.2 mph /  1.9 km/h 90 % 0.00 in /  0 mm
08:36 54.9 °F /  12.7 °C 51.7 °F /  10.9 °C 30.09 in /  1018.8 hPa NNE 0.6 mph /  1 km/h 1.2 mph /  1.9 km/h 89 % 0.00 in /  0 mm
08:41 55.5 °F /  13.1 °C 52.3 °F /  11.3 °C 30.09 in /  1018.8 hPa NNE 1.0 mph /  1.6 km/h 2.3 mph /  3.7 km/h 89 % 0.00 in /  0 mm
08:46 56.0 °F /  13.3 °C 52.2 °F /  11.2 °C 30.09 in /  1018.8 hPa NNE 0.5 mph /  0.8 km/h 1.2 mph /  1.9 km/h 87 % 0.00 in /  0 mm
08:51 56.4 °F /  13.6 °C 52.3 °F /  11.3 °C 30.08 in /  1018.5 hPa NNE 1.0 mph /  1.6 km/h 2.3 mph /  3.7 km/h 86 % 0.00 in /  0 mm
08:56 56.7 °F /  13.7 °C 52.6 °F /  11.4 °C 30.08 in /  1018.5 hPa NNE 0.2 mph /  0.3 km/h 1.2 mph /  1.9 km/h 86 % 0.00 in /  0 mm
09:01 57.0 °F /  13.9 °C 52.5 °F /  11.4 °C 30.08 in /  1018.5 hPa NNE 1.2 mph /  1.9 km/h 3.5 mph /  5.6 km/h 85 % 0.00 in /  0 mm
09:06 57.3 °F /  14.1 °C 52.5 °F /  11.4 °C 30.08 in /  1018.5 hPa NNE 1.8 mph /  2.9 km/h 3.5 mph /  5.6 km/h 84 % 0.00 in /  0 mm
09:11 57.6 °F /  14.2 °C 52.8 °F /  11.6 °C 30.08 in /  1018.5 hPa NNE 0.7 mph /  1.1 km/h 2.3 mph /  3.7 km/h 84 % 0.00 in /  0 mm
09:16 57.9 °F /  14.4 °C 53.1 °F /  11.7 °C 30.09 in /  1018.8 hPa NNE 0.4 mph /  0.6 km/h 1.2 mph /  1.9 km/h 84 % 0.00 in /  0 mm
09:21 58.3 °F /  14.6 °C 53.5 °F /  11.9 °C 30.09 in /  1018.8 hPa Calm   1.2 mph /  1.9 km/h 84 % 0.00 in /  0 mm
09:26 59.0 °F /  15 °C 54.2 °F /  12.3 °C 30.09 in /  1018.8 hPa NNE 0.6 mph /  1 km/h 3.5 mph /  5.6 km/h 84 % 0.00 in /  0 mm
09:31 59.5 °F /  15.3 °C 54.0 °F /  12.2 °C 30.09 in /  1018.8 hPa NE 0.8 mph /  1.3 km/h 1.2 mph /  1.9 km/h 82 % 0.00 in /  0 mm
09:36 59.5 °F /  15.3 °C 53.3 °F /  11.8 °C 30.09 in /  1018.8 hPa NE 1.0 mph /  1.6 km/h 2.3 mph /  3.7 km/h 80 % 0.00 in /  0 mm
09:41 59.5 °F /  15.3 °C 53.0 °F /  11.7 °C 30.09 in /  1018.8 hPa NE 0.2 mph /  0.3 km/h 1.2 mph /  1.9 km/h 79 % 0.00 in /  0 mm
09:46 59.9 °F /  15.5 °C 54.7 °F /  12.6 °C 30.09 in /  1018.8 hPa NE 0.5 mph /  0.8 km/h 2.3 mph /  3.7 km/h 83 % 0.00 in /  0 mm
09:51 60.6 °F /  15.9 °C 54.7 °F /  12.6 °C 30.09 in /  1018.8 hPa NE 0.9 mph /  1.4 km/h 2.3 mph /  3.7 km/h 81 % 0.00 in /  0 mm
09:56 61.2 °F /  16.2 °C 55.0 °F /  12.8 °C 30.10 in /  1019.2 hPa NNW 2.1 mph /  3.4 km/h 3.5 mph /  5.6 km/h 80 % 0.00 in /  0 mm
10:01 61.2 °F /  16.2 °C 53.2 °F /  11.8 °C 30.10 in /  1019.2 hPa NNW 2.2 mph /  3.5 km/h 3.5 mph /  5.6 km/h 75 % 0.00 in /  0 mm
10:07 61.2 °F /  16.2 °C 53.6 °F /  12 °C 30.10 in /  1019.2 hPa Calm   2.3 mph /  3.7 km/h 76 % 0.00 in /  0 mm
10:12 61.3 °F /  16.3 °C 53.3 °F /  11.8 °C 30.10 in /  1019.2 hPa NW 1.0 mph /  1.6 km/h 3.5 mph /  5.6 km/h 75 % 0.00 in /  0 mm
10:17 61.4 °F /  16.3 °C 53.4 °F /  11.9 °C 30.10 in /  1019.2 hPa NW 1.9 mph /  3.1 km/h 3.5 mph /  5.6 km/h 75 % 0.00 in /  0 mm
10:22 61.5 °F /  16.4 °C 53.9 °F /  12.2 °C 30.11 in /  1019.5 hPa NW 2.3 mph /  3.7 km/h 3.5 mph /  5.6 km/h 76 % 0.00 in /  0 mm
10:27 61.6 °F /  16.4 °C 53.6 °F /  12 °C 30.11 in /  1019.5 hPa NW 1.7 mph /  2.7 km/h 4.0 mph /  6.4 km/h 75 % 0.00 in /  0 mm
10:32 61.6 °F /  16.4 °C 54.0 °F /  12.2 °C 30.10 in /  1019.2 hPa Calm   1.2 mph /  1.9 km/h 76 % 0.00 in /  0 mm
10:37 62.0 °F /  16.7 °C 54.3 °F /  12.4 °C 30.11 in /  1019.5 hPa Calm   1.0 mph /  1.6 km/h 76 % 0.00 in /  0 mm
10:42 62.4 °F /  16.9 °C 55.1 °F /  12.8 °C 30.11 in /  1019.5 hPa Calm   1.2 mph /  1.9 km/h 77 % 0.00 in /  0 mm
10:47 62.8 °F /  17.1 °C 55.5 °F /  13.1 °C 30.11 in /  1019.5 hPa Calm     77 % 0.00 in /  0 mm
10:52 63.2 °F /  17.3 °C 55.1 °F /  12.8 °C 30.11 in /  1019.5 hPa WNW 1.7 mph /  2.7 km/h 3.5 mph /  5.6 km/h 75 % 0.00 in /  0 mm
10:57 63.9 °F /  17.7 °C 55.8 °F /  13.2 °C 30.11 in /  1019.5 hPa WNW 1.4 mph /  2.3 km/h 3.0 mph /  4.8 km/h 75 % 0.00 in /  0 mm
11:02 64.4 °F /  18 °C 55.6 °F /  13.1 °C 30.11 in /  1019.5 hPa WNW 2.0 mph /  3.2 km/h 5.0 mph /  8 km/h 73 % 0.00 in /  0 mm
11:07 64.9 °F /  18.3 °C 55.7 °F /  13.2 °C 30.11 in /  1019.5 hPa WNW 2.0 mph /  3.2 km/h 6.0 mph /  9.7 km/h 72 % 0.00 in /  0 mm
11:12 65.3 °F /  18.5 °C 54.9 °F /  12.7 °C 30.11 in /  1019.5 hPa West 3.0 mph /  4.8 km/h 5.0 mph /  8 km/h 69 % 0.00 in /  0 mm
11:17 65.4 °F /  18.6 °C 54.6 °F /  12.6 °C 30.11 in /  1019.5 hPa WNW 2.0 mph /  3.2 km/h 4.0 mph /  6.4 km/h 68 % 0.00 in /  0 mm
11:22 65.1 °F /  18.4 °C 54.3 °F /  12.4 °C 30.12 in /  1019.9 hPa WNW 2.0 mph /  3.2 km/h 5.0 mph /  8 km/h 68 % 0.00 in /  0 mm
11:27 64.9 °F /  18.3 °C 54.0 °F /  12.2 °C 30.12 in /  1019.9 hPa WNW 3.0 mph /  4.8 km/h 6.0 mph /  9.7 km/h 68 % 0.00 in /  0 mm
11:32 64.2 °F /  17.9 °C 53.4 °F /  11.9 °C 30.12 in /  1019.9 hPa WNW 3.0 mph /  4.8 km/h 6.0 mph /  9.7 km/h 68 % 0.00 in /  0 mm
11:37 63.5 °F /  17.5 °C 53.1 °F /  11.7 °C 30.13 in /  1020.2 hPa WNW 4.0 mph /  6.4 km/h 8.1 mph /  13 km/h 69 % 0.00 in /  0 mm
11:42 62.5 °F /  16.9 °C 53.0 °F /  11.7 °C 30.13 in /  1020.2 hPa West 2.0 mph /  3.2 km/h 4.6 mph /  7.4 km/h 71 % 0.00 in /  0 mm
11:47 62.1 °F /  16.7 °C 53.3 °F /  11.8 °C 30.13 in /  1020.2 hPa West 1.4 mph /  2.3 km/h 5.8 mph /  9.3 km/h 73 % 0.00 in /  0 mm
11:52 62.0 °F /  16.7 °C 53.6 °F /  12 °C 30.13 in /  1020.2 hPa SSW 1.9 mph /  3.1 km/h 5.0 mph /  8 km/h 74 % 0.00 in /  0 mm
11:57 62.1 °F /  16.7 °C 54.4 °F /  12.4 °C 30.13 in /  1020.2 hPa WSW 2.0 mph /  3.2 km/h 4.0 mph /  6.4 km/h 76 % 0.00 in /  0 mm
12:02 62.5 °F /  16.9 °C 54.5 °F /  12.5 °C 30.13 in /  1020.2 hPa West 3.7 mph /  6 km/h 5.8 mph /  9.3 km/h 75 % 0.00 in /  0 mm
12:07 63.0 °F /  17.2 °C 54.6 °F /  12.6 °C 30.13 in /  1020.2 hPa WSW 2.3 mph /  3.7 km/h 6.0 mph /  9.7 km/h 74 % 0.00 in /  0 mm
12:12 63.4 °F /  17.4 °C 55.0 °F /  12.8 °C 30.13 in /  1020.2 hPa SW 3.7 mph /  6 km/h 6.9 mph /  11.1 km/h 74 % 0.00 in /  0 mm
12:17 63.7 °F /  17.6 °C 54.9 °F /  12.7 °C 30.13 in /  1020.2 hPa WNW 6.9 mph /  11.1 km/h 9.2 mph /  14.8 km/h 73 % 0.00 in /  0 mm
12:22 63.9 °F /  17.7 °C 54.7 °F /  12.6 °C 30.13 in /  1020.2 hPa West 4.8 mph /  7.7 km/h 8.1 mph /  13 km/h 72 % 0.00 in /  0 mm
12:27 63.9 °F /  17.7 °C 54.7 °F /  12.6 °C 30.14 in /  1020.5 hPa NW 4.6 mph /  7.4 km/h 8.1 mph /  13 km/h 72 % 0.00 in /  0 mm
12:32 63.9 °F /  17.7 °C 54.7 °F /  12.6 °C 30.14 in /  1020.5 hPa SW 2.5 mph /  4 km/h 6.9 mph /  11.1 km/h 72 % 0.00 in /  0 mm
12:37 63.8 °F /  17.7 °C 54.2 °F /  12.3 °C 30.14 in /  1020.5 hPa WNW 2.7 mph /  4.3 km/h 6.9 mph /  11.1 km/h 71 % 0.00 in /  0 mm
12:42 63.8 °F /  17.7 °C 53.8 °F /  12.1 °C 30.14 in /  1020.5 hPa WNW 4.5 mph /  7.2 km/h 6.9 mph /  11.1 km/h 70 % 0.00 in /  0 mm
12:47 63.9 °F /  17.7 °C 53.5 °F /  11.9 °C 30.15 in /  1020.9 hPa WNW 4.8 mph /  7.7 km/h 9.2 mph /  14.8 km/h 69 % 0.00 in /  0 mm
12:52 64.0 °F /  17.8 °C 53.2 °F /  11.8 °C 30.15 in /  1020.9 hPa WNW 4.1 mph /  6.6 km/h 8.1 mph /  13 km/h 68 % 0.00 in /  0 mm
12:57 63.9 °F /  17.7 °C 54.3 °F /  12.4 °C 30.16 in /  1021.2 hPa West 2.8 mph /  4.5 km/h 6.0 mph /  9.7 km/h 71 % 0.00 in /  0 mm
13:02 63.8 °F /  17.7 °C 55.7 °F /  13.2 °C 30.15 in /  1020.9 hPa NW 3.1 mph /  5 km/h 5.0 mph /  8 km/h 75 % 0.00 in /  0 mm
13:07 63.5 °F /  17.5 °C 56.5 °F /  13.6 °C 30.14 in /  1020.5 hPa West 2.4 mph /  3.9 km/h 3.5 mph /  5.6 km/h 78 % 0.00 in /  0 mm
13:13 63.1 °F /  17.3 °C 56.1 °F /  13.4 °C 30.13 in /  1020.2 hPa WNW 0.4 mph /  0.6 km/h 3.5 mph /  5.6 km/h 78 % 0.00 in /  0 mm
13:18 62.8 °F /  17.1 °C 56.5 °F /  13.6 °C 30.13 in /  1020.2 hPa WNW 0.1 mph /  0.2 km/h 1.2 mph /  1.9 km/h 80 % 0.00 in /  0 mm
13:23 62.5 °F /  16.9 °C 56.6 °F /  13.7 °C 30.14 in /  1020.5 hPa WNW 3.8 mph /  6.1 km/h 6.0 mph /  9.7 km/h 81 % 0.00 in /  0 mm
13:28 62.1 °F /  16.7 °C 56.2 °F /  13.4 °C 30.14 in /  1020.5 hPa WNW 3.5 mph /  5.6 km/h 6.9 mph /  11.1 km/h 81 % 0.00 in /  0 mm
13:33 61.6 °F /  16.4 °C 56.0 °F /  13.3 °C 30.14 in /  1020.5 hPa NW 1.4 mph /  2.3 km/h 3.5 mph /  5.6 km/h 82 % 0.00 in /  0 mm
13:38 61.3 °F /  16.3 °C 56.1 °F /  13.4 °C 30.13 in /  1020.2 hPa West 3.4 mph /  5.5 km/h 4.6 mph /  7.4 km/h 83 % 0.00 in /  0 mm
13:43 61.0 °F /  16.1 °C 56.1 °F /  13.4 °C 30.13 in /  1020.2 hPa Calm   2.3 mph /  3.7 km/h 84 % 0.00 in /  0 mm
13:48 61.0 °F /  16.1 °C 56.5 °F /  13.6 °C 30.12 in /  1019.9 hPa West 0.9 mph /  1.4 km/h 3.5 mph /  5.6 km/h 85 % 0.00 in /  0 mm
13:53 61.0 °F /  16.1 °C 56.5 °F /  13.6 °C 30.12 in /  1019.9 hPa Calm     85 % 0.00 in /  0 mm
13:58 61.0 °F /  16.1 °C 56.8 °F /  13.8 °C 30.11 in /  1019.5 hPa Calm     86 % 0.00 in /  0 mm
14:03 61.1 °F /  16.2 °C 56.9 °F /  13.8 °C 30.11 in /  1019.5 hPa Calm     86 % 0.00 in /  0 mm
14:08 61.2 °F /  16.2 °C 57.0 °F /  13.9 °C 30.11 in /  1019.5 hPa Calm     86 % 0.00 in /  0 mm
14:13 61.3 °F /  16.3 °C 57.1 °F /  13.9 °C 30.10 in /  1019.2 hPa Calm     86 % 0.00 in /  0 mm
14:18 61.5 °F /  16.4 °C 57.3 °F /  14.1 °C 30.09 in /  1018.8 hPa West 0.2 mph /  0.3 km/h 1.2 mph /  1.9 km/h 86 % 0.00 in /  0 mm
14:23 61.7 °F /  16.5 °C 57.1 °F /  13.9 °C 30.09 in /  1018.8 hPa West 0.3 mph /  0.5 km/h 1.2 mph /  1.9 km/h 85 % 0.00 in /  0 mm
14:28 62.0 °F /  16.7 °C 57.4 °F /  14.1 °C 30.09 in /  1018.8 hPa West 0.4 mph /  0.6 km/h 2.3 mph /  3.7 km/h 85 % 0.00 in /  0 mm
14:33 62.2 °F /  16.8 °C 57.0 °F /  13.9 °C 30.09 in /  1018.8 hPa WNW 0.2 mph /  0.3 km/h 1.2 mph /  1.9 km/h 83 % 0.00 in /  0 mm
14:38 62.5 °F /  16.9 °C 57.9 °F /  14.4 °C 30.09 in /  1018.8 hPa NW 1.1 mph /  1.8 km/h 3.5 mph /  5.6 km/h 85 % 0.00 in /  0 mm
14:43 62.9 °F /  17.2 °C 57.7 °F /  14.3 °C 30.09 in /  1018.8 hPa NW 1.5 mph /  2.4 km/h 3.5 mph /  5.6 km/h 83 % 0.00 in /  0 mm
14:48 63.2 °F /  17.3 °C 57.9 °F /  14.4 °C 30.09 in /  1018.8 hPa North 1.9 mph /  3.1 km/h 3.5 mph /  5.6 km/h 83 % 0.00 in /  0 mm
14:53 63.5 °F /  17.5 °C 57.6 °F /  14.2 °C 30.09 in /  1018.8 hPa North 0.2 mph /  0.3 km/h 2.3 mph /  3.7 km/h 81 % 0.00 in /  0 mm
14:58 63.9 °F /  17.7 °C 58.3 °F /  14.6 °C 30.09 in /  1018.8 hPa North 0.4 mph /  0.6 km/h 1.2 mph /  1.9 km/h 82 % 0.00 in /  0 mm
15:03 64.2 °F /  17.9 °C 58.2 °F /  14.6 °C 30.08 in /  1018.5 hPa North 0.4 mph /  0.6 km/h 2.3 mph /  3.7 km/h 81 % 0.00 in /  0 mm
15:08 64.6 °F /  18.1 °C 58.6 °F /  14.8 °C 30.09 in /  1018.8 hPa North 2.1 mph /  3.4 km/h 3.5 mph /  5.6 km/h 81 % 0.00 in /  0 mm
15:13 65.0 °F /  18.3 °C 59.0 °F /  15 °C 30.08 in /  1018.5 hPa NW 0.3 mph /  0.5 km/h 1.2 mph /  1.9 km/h 81 % 0.00 in /  0 mm
15:19 65.4 °F /  18.6 °C 59.1 °F /  15.1 °C 30.09 in /  1018.8 hPa NW 1.0 mph /  1.6 km/h 2.3 mph /  3.7 km/h 80 % 0.00 in /  0 mm
15:24 65.8 °F /  18.8 °C 59.5 °F /  15.3 °C 30.09 in /  1018.8 hPa NNW 0.4 mph /  0.6 km/h 2.3 mph /  3.7 km/h 80 % 0.00 in /  0 mm
15:29 66.4 °F /  19.1 °C 60.0 °F /  15.6 °C 30.08 in /  1018.5 hPa NNW 0.7 mph /  1.1 km/h 3.5 mph /  5.6 km/h 80 % 0.00 in /  0 mm
15:34 66.9 °F /  19.4 °C 58.7 °F /  14.8 °C 30.08 in /  1018.5 hPa NNW 1.2 mph /  1.9 km/h 3.5 mph /  5.6 km/h 75 % 0.00 in /  0 mm
15:39 67.4 °F /  19.7 °C 59.6 °F /  15.3 °C 30.08 in /  1018.5 hPa North 1.1 mph /  1.8 km/h 3.5 mph /  5.6 km/h 76 % 0.00 in /  0 mm
15:44 67.9 °F /  19.9 °C 59.7 °F /  15.4 °C 30.08 in /  1018.5 hPa North 1.1 mph /  1.8 km/h 2.3 mph /  3.7 km/h 75 % 0.00 in /  0 mm
15:49 68.2 °F /  20.1 °C 59.6 °F /  15.3 °C 30.08 in /  1018.5 hPa North 0.6 mph /  1 km/h 1.2 mph /  1.9 km/h 74 % 0.00 in /  0 mm
15:54 68.6 °F /  20.3 °C 59.2 °F /  15.1 °C 30.08 in /  1018.5 hPa SW 0.2 mph /  0.3 km/h 1.2 mph /  1.9 km/h 72 % 0.00 in /  0 mm
15:59 68.9 °F /  20.5 °C 57.9 °F /  14.4 °C 30.08 in /  1018.5 hPa West 1.1 mph /  1.8 km/h 3.0 mph /  4.8 km/h 68 % 0.00 in /  0 mm
16:04 69.2 °F /  20.7 °C 59.0 °F /  15 °C 30.08 in /  1018.5 hPa Calm   1.0 mph /  1.6 km/h 70 % 0.00 in /  0 mm
16:09 69.3 °F /  20.7 °C 59.1 °F /  15.1 °C 30.08 in /  1018.5 hPa West 0.9 mph /  1.4 km/h 1.0 mph /  1.6 km/h 70 % 0.00 in /  0 mm
16:14 69.5 °F /  20.8 °C 58.1 °F /  14.5 °C 30.08 in /  1018.5 hPa West 1.5 mph /  2.4 km/h 3.0 mph /  4.8 km/h 67 % 0.00 in /  0 mm
16:19 69.8 °F /  21 °C 57.5 °F /  14.2 °C 30.08 in /  1018.5 hPa SW 2.0 mph /  3.2 km/h 4.6 mph /  7.4 km/h 65 % 0.00 in /  0 mm
16:24 70.0 °F /  21.1 °C 56.4 °F /  13.6 °C 30.08 in /  1018.5 hPa West 3.6 mph /  5.8 km/h 5.8 mph /  9.3 km/h 62 % 0.00 in /  0 mm
16:29 70.1 °F /  21.2 °C 56.5 °F /  13.6 °C 30.08 in /  1018.5 hPa WNW 3.5 mph /  5.6 km/h 6.9 mph /  11.1 km/h 62 % 0.00 in /  0 mm
16:34 70.1 °F /  21.2 °C 56.5 °F /  13.6 °C 30.08 in /  1018.5 hPa NW 1.0 mph /  1.6 km/h 3.5 mph /  5.6 km/h 62 % 0.00 in /  0 mm
16:39 70.2 °F /  21.2 °C 56.6 °F /  13.7 °C 30.08 in /  1018.5 hPa WSW 1.7 mph /  2.7 km/h 6.9 mph /  11.1 km/h 62 % 0.00 in /  0 mm
16:44 70.4 °F /  21.3 °C 56.8 °F /  13.8 °C 30.08 in /  1018.5 hPa WSW 1.1 mph /  1.8 km/h 4.0 mph /  6.4 km/h 62 % 0.00 in /  0 mm
16:49 70.4 °F /  21.3 °C 56.3 °F /  13.5 °C 30.07 in /  1018.2 hPa WSW 4.2 mph /  6.8 km/h 6.9 mph /  11.1 km/h 61 % 0.00 in /  0 mm
16:54 70.4 °F /  21.3 °C 56.8 °F /  13.8 °C 30.08 in /  1018.5 hPa SW 2.9 mph /  4.7 km/h 5.8 mph /  9.3 km/h 62 % 0.00 in /  0 mm
16:59 70.6 °F /  21.4 °C 56.9 °F /  13.8 °C 30.08 in /  1018.5 hPa WSW 2.4 mph /  3.9 km/h 6.0 mph /  9.7 km/h 62 % 0.00 in /  0 mm
17:04 70.8 °F /  21.6 °C 57.1 °F /  13.9 °C 30.08 in /  1018.5 hPa West 0.6 mph /  1 km/h 3.0 mph /  4.8 km/h 62 % 0.00 in /  0 mm
17:09 71.0 °F /  21.7 °C 56.9 °F /  13.8 °C 30.08 in /  1018.5 hPa WNW 4.0 mph /  6.4 km/h 8.0 mph /  12.9 km/h 61 % 0.00 in /  0 mm
17:15 71.1 °F /  21.7 °C 56.5 °F /  13.6 °C 30.08 in /  1018.5 hPa WSW 4.6 mph /  7.4 km/h 8.1 mph /  13 km/h 60 % 0.00 in /  0 mm
17:20 71.2 °F /  21.8 °C 56.6 °F /  13.7 °C 30.08 in /  1018.5 hPa WSW 3.6 mph /  5.8 km/h 6.0 mph /  9.7 km/h 60 % 0.00 in /  0 mm
17:25 71.3 °F /  21.8 °C 56.7 °F /  13.7 °C 30.08 in /  1018.5 hPa West 5.3 mph /  8.5 km/h 8.1 mph /  13 km/h 60 % 0.00 in /  0 mm
17:30 71.6 °F /  22 °C 56.5 °F /  13.6 °C 30.08 in /  1018.5 hPa West 2.5 mph /  4 km/h 6.9 mph /  11.1 km/h 59 % 0.00 in /  0 mm
17:35 71.7 °F /  22.1 °C 56.6 °F /  13.7 °C 30.08 in /  1018.5 hPa West 3.0 mph /  4.8 km/h 5.8 mph /  9.3 km/h 59 % 0.00 in /  0 mm
17:40 71.6 °F /  22 °C 57.0 °F /  13.9 °C 30.08 in /  1018.5 hPa West 1.4 mph /  2.3 km/h 3.5 mph /  5.6 km/h 60 % 0.00 in /  0 mm
17:45 71.4 °F /  21.9 °C 56.8 °F /  13.8 °C 30.09 in /  1018.8 hPa West 1.7 mph /  2.7 km/h 3.5 mph /  5.6 km/h 60 % 0.00 in /  0 mm
17:50 71.3 °F /  21.8 °C 57.2 °F /  14 °C 30.09 in /  1018.8 hPa WSW 0.8 mph /  1.3 km/h 2.3 mph /  3.7 km/h 61 % 0.00 in /  0 mm
17:55 71.3 °F /  21.8 °C 57.2 °F /  14 °C 30.09 in /  1018.8 hPa West 3.1 mph /  5 km/h 4.6 mph /  7.4 km/h 61 % 0.00 in /  0 mm
18:00 71.4 °F /  21.9 °C 57.2 °F /  14 °C 30.09 in /  1018.8 hPa WSW 1.6 mph /  2.6 km/h 4.0 mph /  6.4 km/h 61 % 0.00 in /  0 mm
18:05 71.2 °F /  21.8 °C 57.1 °F /  13.9 °C 30.09 in /  1018.8 hPa SW 2.8 mph /  4.5 km/h 4.0 mph /  6.4 km/h 61 % 0.00 in /  0 mm
18:10 71.0 °F /  21.7 °C 56.9 °F /  13.8 °C 30.09 in /  1018.8 hPa SSW 1.0 mph /  1.6 km/h 3.5 mph /  5.6 km/h 61 % 0.00 in /  0 mm
18:15 71.0 °F /  21.7 °C 57.3 °F /  14.1 °C 30.09 in /  1018.8 hPa SW 0.8 mph /  1.3 km/h 4.0 mph /  6.4 km/h 62 % 0.00 in /  0 mm
18:20 70.8 °F /  21.6 °C 57.1 °F /  13.9 °C 30.09 in /  1018.8 hPa WSW 0.2 mph /  0.3 km/h 2.3 mph /  3.7 km/h 62 % 0.00 in /  0 mm
18:25 70.6 °F /  21.4 °C 56.9 °F /  13.8 °C 30.09 in /  1018.8 hPa Calm     62 % 0.00 in /  0 mm
18:30 70.6 °F /  21.4 °C 56.5 °F /  13.6 °C 30.09 in /  1018.8 hPa WSW 0.9 mph /  1.4 km/h 2.0 mph /  3.2 km/h 61 % 0.00 in /  0 mm
18:35 70.6 °F /  21.4 °C 56.5 °F /  13.6 °C 30.09 in /  1018.8 hPa Calm     61 % 0.00 in /  0 mm
18:40 70.5 °F /  21.4 °C 56.9 °F /  13.8 °C 30.09 in /  1018.8 hPa Calm     62 % 0.00 in /  0 mm
18:45 70.3 °F /  21.3 °C 56.7 °F /  13.7 °C 30.09 in /  1018.8 hPa Calm     62 % 0.00 in /  0 mm
18:50 70.2 °F /  21.2 °C 56.6 °F /  13.7 °C 30.09 in /  1018.8 hPa Calm   1.2 mph /  1.9 km/h 62 % 0.00 in /  0 mm
18:55 70.0 °F /  21.1 °C 56.8 °F /  13.8 °C 30.09 in /  1018.8 hPa Calm     63 % 0.00 in /  0 mm
19:00 69.9 °F /  21.1 °C 57.2 °F /  14 °C 30.09 in /  1018.8 hPa Calm     64 % 0.00 in /  0 mm
19:05 69.7 °F /  20.9 °C 57.0 °F /  13.9 °C 30.09 in /  1018.8 hPa Calm     64 % 0.00 in /  0 mm
19:10 69.5 °F /  20.8 °C 56.8 °F /  13.8 °C 30.09 in /  1018.8 hPa Calm     64 % 0.00 in /  0 mm
19:15 69.3 °F /  20.7 °C 56.6 °F /  13.7 °C 30.09 in /  1018.8 hPa Calm     64 % 0.00 in /  0 mm
19:20 69.0 °F /  20.6 °C 56.7 °F /  13.7 °C 30.10 in /  1019.2 hPa Calm     65 % 0.00 in /  0 mm
19:25 68.7 °F /  20.4 °C 56.5 °F /  13.6 °C 30.10 in /  1019.2 hPa Calm     65 % 0.00 in /  0 mm
19:26 68.6 °F /  20.3 °C 56.4 °F /  13.6 °C 30.10 in /  1019.2 hPa Calm     65 % 0.00 in /  0 mm
19:31 68.4 °F /  20.2 °C 56.2 °F /  13.4 °C 30.10 in /  1019.2 hPa Calm     65 % 0.00 in /  0 mm
19:36 68.0 °F /  20 °C 56.2 °F /  13.4 °C 30.10 in /  1019.2 hPa Calm     66 % 0.00 in /  0 mm
19:41 67.7 °F /  19.8 °C 56.3 °F /  13.5 °C 30.11 in /  1019.5 hPa Calm     67 % 0.00 in /  0 mm
19:46 67.4 °F /  19.7 °C 56.5 °F /  13.6 °C 30.11 in /  1019.5 hPa Calm   1.2 mph /  1.9 km/h 68 % 0.00 in /  0 mm
19:51 67.0 °F /  19.4 °C 56.1 °F /  13.4 °C 30.11 in /  1019.5 hPa Calm     68 % 0.00 in /  0 mm
19:56 66.6 °F /  19.2 °C 55.7 °F /  13.2 °C 30.11 in /  1019.5 hPa Calm     68 % 0.00 in /  0 mm
20:02 66.2 °F /  19 °C 55.7 °F /  13.2 °C 30.12 in /  1019.9 hPa Calm   1.2 mph /  1.9 km/h 69 % 0.00 in /  0 mm
20:07 65.8 °F /  18.8 °C 55.3 °F /  12.9 °C 30.12 in /  1019.9 hPa Calm   1.2 mph /  1.9 km/h 69 % 0.00 in /  0 mm
20:12 65.6 °F /  18.7 °C 55.5 °F /  13.1 °C 30.12 in /  1019.9 hPa Calm     70 % 0.00 in /  0 mm
20:17 65.3 °F /  18.5 °C 55.3 °F /  12.9 °C 30.12 in /  1019.9 hPa Calm     70 % 0.00 in /  0 mm
20:22 65.0 °F /  18.3 °C 55.4 °F /  13 °C 30.13 in /  1020.2 hPa Calm     71 % 0.00 in /  0 mm
20:27 64.6 °F /  18.1 °C 55.0 °F /  12.8 °C 30.13 in /  1020.2 hPa Calm     71 % 0.00 in /  0 mm
20:32 64.3 °F /  17.9 °C 55.1 °F /  12.8 °C 30.14 in /  1020.5 hPa Calm     72 % 0.00 in /  0 mm
20:37 64.0 °F /  17.8 °C 54.8 °F /  12.7 °C 30.14 in /  1020.5 hPa NNW 0.4 mph /  0.6 km/h 2.0 mph /  3.2 km/h 72 % 0.00 in /  0 mm
20:42 63.6 °F /  17.6 °C 55.2 °F /  12.9 °C 30.14 in /  1020.5 hPa NW 0.8 mph /  1.3 km/h 3.5 mph /  5.6 km/h 74 % 0.00 in /  0 mm
20:47 63.1 °F /  17.3 °C 54.7 °F /  12.6 °C 30.15 in /  1020.9 hPa Calm     74 % 0.00 in /  0 mm
20:52 62.7 °F /  17.1 °C 54.7 °F /  12.6 °C 30.15 in /  1020.9 hPa Calm     75 % 0.00 in /  0 mm
20:57 62.2 °F /  16.8 °C 54.2 °F /  12.3 °C 30.15 in /  1020.9 hPa Calm     75 % 0.00 in /  0 mm
21:02 61.8 °F /  16.6 °C 53.8 °F /  12.1 °C 30.15 in /  1020.9 hPa Calm     75 % 0.00 in /  0 mm
21:07 61.4 °F /  16.3 °C 53.8 °F /  12.1 °C 30.16 in /  1021.2 hPa Calm     76 % 0.00 in /  0 mm
21:12 61.0 °F /  16.1 °C 53.4 °F /  11.9 °C 30.16 in /  1021.2 hPa Calm     76 % 0.00 in /  0 mm
21:17 60.5 °F /  15.8 °C 52.5 °F /  11.4 °C 30.16 in /  1021.2 hPa NW 0.4 mph /  0.6 km/h 1.2 mph /  1.9 km/h 75 % 0.00 in /  0 mm
21:22 60.1 °F /  15.6 °C 52.5 °F /  11.4 °C 30.16 in /  1021.2 hPa Calm     76 % 0.00 in /  0 mm
21:27 59.8 °F /  15.4 °C 52.2 °F /  11.2 °C 30.16 in /  1021.2 hPa Calm     76 % 0.00 in /  0 mm
21:37 59.3 °F /  15.2 °C 52.1 °F /  11.2 °C 30.17 in /  1021.6 hPa NW 0.6 mph /  1 km/h 1.2 mph /  1.9 km/h 77 % 0.00 in /  0 mm
21:42 58.9 °F /  14.9 °C 52.1 °F /  11.2 °C 30.17 in /  1021.6 hPa Calm   1.2 mph /  1.9 km/h 78 % 0.00 in /  0 mm
21:47 58.6 °F /  14.8 °C 52.1 °F /  11.2 °C 30.17 in /  1021.6 hPa Calm     79 % 0.00 in /  0 mm
21:52 58.4 °F /  14.7 °C 52.3 °F /  11.3 °C 30.17 in /  1021.6 hPa Calm     80 % 0.00 in /  0 mm
21:57 58.2 °F /  14.6 °C 52.7 °F /  11.5 °C 30.17 in /  1021.6 hPa WSW 2.0 mph /  3.2 km/h 4.0 mph /  6.4 km/h 82 % 0.00 in /  0 mm
22:02 58.1 °F /  14.5 °C 53.0 °F /  11.7 °C 30.17 in /  1021.6 hPa SW 1.0 mph /  1.6 km/h 2.3 mph /  3.7 km/h 83 % 0.00 in /  0 mm
22:07 58.1 °F /  14.5 °C 53.3 °F /  11.8 °C 30.17 in /  1021.6 hPa SW 1.0 mph /  1.6 km/h 3.0 mph /  4.8 km/h 84 % 0.00 in /  0 mm
22:12 58.0 °F /  14.4 °C 52.9 °F /  11.6 °C 30.17 in /  1021.6 hPa Calm   1.0 mph /  1.6 km/h 83 % 0.00 in /  0 mm
22:17 57.9 °F /  14.4 °C 52.8 °F /  11.6 °C 30.17 in /  1021.6 hPa SW 1.0 mph /  1.6 km/h 3.0 mph /  4.8 km/h 83 % 0.00 in /  0 mm
22:22 57.8 °F /  14.3 °C 52.7 °F /  11.5 °C 30.18 in /  1021.9 hPa SW 1.0 mph /  1.6 km/h 3.0 mph /  4.8 km/h 83 % 0.00 in /  0 mm
22:27 57.7 °F /  14.3 °C 52.9 °F /  11.6 °C 30.18 in /  1021.9 hPa Calm     84 % 0.00 in /  0 mm
22:32 57.5 °F /  14.2 °C 52.4 °F /  11.3 °C 30.18 in /  1021.9 hPa Calm     83 % 0.00 in /  0 mm
22:34 57.5 °F /  14.2 °C 52.4 °F /  11.3 °C 30.18 in /  1021.9 hPa Calm   2.3 mph /  3.7 km/h 83 % 0.00 in /  0 mm
22:39 57.4 °F /  14.1 °C 52.3 °F /  11.3 °C 30.18 in /  1021.9 hPa Calm     83 % 0.00 in /  0 mm
22:44 57.2 °F /  14 °C 52.1 °F /  11.2 °C 30.18 in /  1021.9 hPa Calm     83 % 0.00 in /  0 mm
22:49 57.1 °F /  13.9 °C 52.0 °F /  11.1 °C 30.18 in /  1021.9 hPa Calm     83 % 0.00 in /  0 mm
22:50 57.0 °F /  13.9 °C 51.9 °F /  11.1 °C 30.18 in /  1021.9 hPa Calm     83 % 0.00 in /  0 mm
22:55 56.8 °F /  13.8 °C 52.0 °F /  11.1 °C 30.18 in /  1021.9 hPa SW 0.1 mph /  0.2 km/h 1.0 mph /  1.6 km/h 84 % 0.00 in /  0 mm
23:00 56.6 °F /  13.7 °C 52.1 °F /  11.2 °C 30.18 in /  1021.9 hPa Calm     85 % 0.00 in /  0 mm
23:06 56.4 °F /  13.6 °C 51.9 °F /  11.1 °C 30.19 in /  1022.2 hPa SW 0.7 mph /  1.1 km/h 2.3 mph /  3.7 km/h 85 % 0.00 in /  0 mm
23:11 56.2 °F /  13.4 °C 51.7 °F /  10.9 °C 30.19 in /  1022.2 hPa Calm     85 % 0.00 in /  0 mm
23:16 56.0 °F /  13.3 °C 51.9 °F /  11.1 °C 30.19 in /  1022.2 hPa SW 1.0 mph /  1.6 km/h 2.3 mph /  3.7 km/h 86 % 0.00 in /  0 mm
23:21 55.8 °F /  13.2 °C 51.7 °F /  10.9 °C 30.20 in /  1022.6 hPa NW 1.5 mph /  2.4 km/h 3.5 mph /  5.6 km/h 86 % 0.00 in /  0 mm
23:26 55.6 °F /  13.1 °C 51.5 °F /  10.8 °C 30.20 in /  1022.6 hPa NW 0.2 mph /  0.3 km/h 2.3 mph /  3.7 km/h 86 % 0.00 in /  0 mm
23:31 55.5 °F /  13.1 °C 51.4 °F /  10.8 °C 30.20 in /  1022.6 hPa NW 0.1 mph /  0.2 km/h 1.2 mph /  1.9 km/h 86 % 0.00 in /  0 mm
23:36 55.2 °F /  12.9 °C 50.8 °F /  10.4 °C 30.21 in /  1022.9 hPa Calm     85 % 0.00 in /  0 mm
23:41 54.9 °F /  12.7 °C 50.2 °F /  10.1 °C 30.21 in /  1022.9 hPa North 0.2 mph /  0.3 km/h 2.3 mph /  3.7 km/h 84 % 0.00 in /  0 mm
23:46 54.7 °F /  12.6 °C 50.3 °F /  10.2 °C 30.21 in /  1022.9 hPa Calm   2.3 mph /  3.7 km/h 85 % 0.00 in /  0 mm
23:51 54.5 °F /  12.5 °C 50.1 °F /  10.1 °C 30.21 in /  1022.9 hPa NNW 2.9 mph /  4.7 km/h 4.6 mph /  7.4 km/h 85 % 0.00 in /  0 mm
23:56 54.4 °F /  12.4 °C 50.0 °F /  10 °C 30.21 in /  1022.9 hPa NNW 3.4 mph /  5.5 km/h 5.0 mph /  8 km/h 85 % 0.00 in /  0 mm
Crab Meadow Weather
Compliments of Weather Underground - 3.25 mb

Script developed by  Jim McMurry - jmcmurry@mwt.net Adapted for the template by  Wim van der Kuil - Leuven-Template.eu

Recycling: The average household throws away 13,000 separate pieces of paper each year. Most is packaging and junk mail.